sim
Sign-in with your pilot id or email,
or register
Callsign
Passwort

Schedule Details

Flight Number: DLH2712 (2)
Departure: Munich Airport (EDDM) at 05:10
Arrival: Hamburg Airport (EDDH) at 06:30
Route: Lufthansa Passenger Schedule. Enter filed route here before submitting Pirep.

Weather Information
Getting current METAR information for EDDM 241520Z 25022KT 9999 -SN SCT020 BKN040 01/M05 Q1000 NOSIG
Getting current METAR information for EDDH 241520Z 21006KT 9000 -SNRA FEW009 BKN012 BKN023 02/01 Q0997 BECMG BKN025

Schedule Frequency

Route Map